createdAt,value
2018-04-14T00:00:39.359Z,7.69
2018-04-14T00:03:06.872Z,7.67
2018-04-14T00:05:34.338Z,7.61
2018-04-14T00:08:01.805Z,7.55
2018-04-14T00:10:29.301Z,7.54
2018-04-14T00:12:56.782Z,7.52
2018-04-14T00:15:24.316Z,7.50
2018-04-14T00:17:51.796Z,7.55
2018-04-14T00:20:19.282Z,7.53
2018-04-14T00:22:46.757Z,7.48
2018-04-14T00:25:14.254Z,7.46
2018-04-14T00:27:41.723Z,7.44
2018-04-14T00:30:09.225Z,7.39
2018-04-14T00:32:36.720Z,7.35
2018-04-14T00:35:04.217Z,7.32
2018-04-14T00:37:31.690Z,7.33
2018-04-14T00:39:59.176Z,7.27
2018-04-14T00:42:26.731Z,7.25
2018-04-14T00:44:54.193Z,7.21
2018-04-14T00:47:21.684Z,7.22
2018-04-14T00:49:49.201Z,7.19
2018-04-14T00:52:16.715Z,7.15
2018-04-14T00:54:44.205Z,7.08
2018-04-14T00:57:11.698Z,7.13
2018-04-14T00:59:39.179Z,7.15
2018-04-14T01:02:06.668Z,7.16
2018-04-14T01:04:34.243Z,7.20
2018-04-14T01:07:01.746Z,7.18
2018-04-14T01:09:29.243Z,7.18
2018-04-14T01:11:56.749Z,7.17
2018-04-14T01:14:24.268Z,7.13
2018-04-14T01:16:51.770Z,7.12
2018-04-14T01:19:19.661Z,7.12
2018-04-14T01:21:47.115Z,7.06
2018-04-14T01:24:14.613Z,7.03
2018-04-14T01:26:42.136Z,7.04
2018-04-14T01:29:09.645Z,7.01
2018-04-14T01:31:37.130Z,7.00
2018-04-14T01:34:04.615Z,7.00
2018-04-14T01:36:32.195Z,7.03
2018-04-14T01:38:59.702Z,7.03
2018-04-14T01:41:27.210Z,7.13
2018-04-14T01:43:54.705Z,7.12
2018-04-14T01:46:22.212Z,7.10
2018-04-14T01:48:49.739Z,7.09
2018-04-14T01:51:17.254Z,7.06
2018-04-14T01:53:44.887Z,7.04
2018-04-14T01:56:12.375Z,7.00
2018-04-14T01:58:39.934Z,7.00
2018-04-14T02:01:07.448Z,6.98
2018-04-14T02:03:34.953Z,6.92
2018-04-14T02:06:02.601Z,6.95
2018-04-14T02:08:30.091Z,6.90
2018-04-14T02:10:57.601Z,6.84
2018-04-14T02:13:25.063Z,6.81
2018-04-14T02:15:52.546Z,6.82
2018-04-14T02:18:20.043Z,6.74
2018-04-14T02:20:47.534Z,6.72
2018-04-14T02:23:15.036Z,6.65
2018-04-14T02:25:42.526Z,6.62
2018-04-14T02:28:10.047Z,6.59
2018-04-14T02:30:37.613Z,6.56
2018-04-14T02:33:05.076Z,6.53
2018-04-14T02:35:32.557Z,6.53
2018-04-14T02:38:00.060Z,6.56
2018-04-14T02:40:27.540Z,6.54
2018-04-14T02:42:55.013Z,6.51
2018-04-14T02:45:22.568Z,6.51
2018-04-14T02:47:50.087Z,6.46
2018-04-14T02:50:17.601Z,6.46
2018-04-14T02:52:45.082Z,6.44
2018-04-14T02:55:12.582Z,6.41
2018-04-14T02:57:40.060Z,6.37
2018-04-14T03:00:07.525Z,6.33
2018-04-14T03:02:35.003Z,6.31
2018-04-14T03:05:02.487Z,6.28
2018-04-14T03:07:30.045Z,6.22
2018-04-14T03:09:57.514Z,6.20
2018-04-14T03:12:24.988Z,6.19
2018-04-14T03:14:52.473Z,6.14
2018-04-14T03:17:19.995Z,6.09
2018-04-14T03:19:47.480Z,6.04
2018-04-14T03:22:14.986Z,6.04
2018-04-14T03:24:42.484Z,6.07
2018-04-14T03:27:09.973Z,6.09
2018-04-14T03:29:37.457Z,6.09
2018-04-14T03:32:04.946Z,6.06
2018-04-14T03:34:32.451Z,6.03
2018-04-14T03:37:00.160Z,6.00
2018-04-14T03:39:27.655Z,5.99
2018-04-14T03:41:55.128Z,6.00
2018-04-14T03:44:22.620Z,6.06
2018-04-14T03:46:50.130Z,6.03
2018-04-14T03:49:17.607Z,6.07
2018-04-14T03:51:45.257Z,6.07
2018-04-14T03:54:12.765Z,6.06
2018-04-14T03:56:40.260Z,6.03
2018-04-14T03:59:07.746Z,5.99
2018-04-14T04:01:35.240Z,6.01
2018-04-14T04:04:02.757Z,6.00
2018-04-14T04:06:30.248Z,6.04
2018-04-14T04:08:57.952Z,5.99
2018-04-14T04:11:25.433Z,5.93
2018-04-14T04:13:52.912Z,5.95
2018-04-14T04:16:20.413Z,5.97
2018-04-14T04:22:05.373Z,5.99
2018-04-14T04:24:49.207Z,5.96
2018-04-14T04:27:16.819Z,5.95
2018-04-14T04:29:44.365Z,5.96
2018-04-14T04:32:11.875Z,5.91
2018-04-14T04:34:39.343Z,5.87
2018-04-14T04:37:06.835Z,5.87
2018-04-14T04:39:34.321Z,5.86
2018-04-14T04:42:01.881Z,5.74
2018-04-14T04:44:29.351Z,5.77
2018-04-14T04:46:56.823Z,5.80
2018-04-14T04:49:24.334Z,5.82
2018-04-14T04:51:51.799Z,5.84
2018-04-14T04:54:19.616Z,5.86
2018-04-14T04:56:47.128Z,5.88
2018-04-14T04:59:14.609Z,5.93
2018-04-14T05:01:42.086Z,5.97
2018-04-14T05:04:09.567Z,6.03
2018-04-14T05:06:37.155Z,6.06
2018-04-14T05:09:06.614Z,6.19
2018-04-14T05:11:34.116Z,6.26
2018-04-14T05:14:01.582Z,6.34
2018-04-14T05:16:29.090Z,6.35
2018-04-14T05:18:56.588Z,6.49
2018-04-14T05:21:24.080Z,6.59
2018-04-14T05:23:51.700Z,6.66
2018-04-14T05:26:19.193Z,6.66
2018-04-14T05:28:46.687Z,6.74
2018-04-14T05:31:14.169Z,6.84
2018-04-14T05:33:41.671Z,6.88
2018-04-14T05:36:09.180Z,6.91
2018-04-14T05:38:36.807Z,6.88
2018-04-14T05:41:04.348Z,6.98
2018-04-14T05:43:31.862Z,7.03
2018-04-14T05:45:59.426Z,7.05
2018-04-14T05:48:26.906Z,7.04
2018-04-14T05:50:54.407Z,7.09
2018-04-14T05:53:21.881Z,7.16
2018-04-14T05:55:49.381Z,7.23
2018-04-14T05:58:16.871Z,7.37
2018-04-14T06:00:44.406Z,7.47
2018-04-14T06:03:11.891Z,7.68
2018-04-14T06:05:39.370Z,7.76
2018-04-14T06:08:06.863Z,7.91
2018-04-14T06:10:34.338Z,8.01
2018-04-14T06:15:57.629Z,8.31
2018-04-14T06:18:25.259Z,8.48
2018-04-14T06:20:52.757Z,8.61
2018-04-14T06:23:20.280Z,8.80
2018-04-14T06:25:47.887Z,8.92
2018-04-14T06:28:15.391Z,9.11
2018-04-14T06:30:42.907Z,9.29
2018-04-14T06:33:10.478Z,9.48
2018-04-14T06:35:37.956Z,9.53
2018-04-14T06:38:05.417Z,9.67
2018-04-14T06:40:32.917Z,9.91
2018-04-14T06:43:00.392Z,10.11
2018-04-14T06:45:27.938Z,10.08
2018-04-14T06:47:55.435Z,10.28
2018-04-14T06:50:23.067Z,10.39
2018-04-14T06:52:50.568Z,10.42
2018-04-14T06:55:18.106Z,10.67
2018-04-14T06:57:45.609Z,10.88
2018-04-14T07:00:13.089Z,11.07
2018-04-14T07:02:40.570Z,11.25
2018-04-14T07:05:08.144Z,11.36
2018-04-14T07:07:35.661Z,11.42
2018-04-14T07:10:03.545Z,11.55
2018-04-14T07:12:31.058Z,11.68
2018-04-14T07:14:58.621Z,11.85
2018-04-14T07:17:26.085Z,11.84
2018-04-14T07:19:53.575Z,11.95
2018-04-14T07:22:21.149Z,12.16
2018-04-14T07:24:48.665Z,12.23
2018-04-14T07:27:16.393Z,12.34
2018-04-14T07:29:44.299Z,12.50
2018-04-14T07:32:11.832Z,12.63
2018-04-14T07:34:39.422Z,12.67
2018-04-14T07:37:06.958Z,13.06
2018-04-14T07:39:34.448Z,13.61
2018-04-14T07:42:01.939Z,13.91
2018-04-14T07:44:29.422Z,14.05
2018-04-14T07:46:56.940Z,14.15
2018-04-14T07:49:24.447Z,14.28
2018-04-14T07:51:51.948Z,14.29
2018-04-14T07:54:19.417Z,14.54
2018-04-14T07:56:46.961Z,14.59
2018-04-14T07:59:14.611Z,14.56
2018-04-14T08:01:48.826Z,14.52
2018-04-14T08:04:17.713Z,14.58
2018-04-14T08:06:46.403Z,14.33
2018-04-14T08:09:16.956Z,14.38
2018-04-14T08:11:45.049Z,14.50
2018-04-14T08:14:13.016Z,14.84
2018-04-14T08:16:41.045Z,15.11
2018-04-14T08:19:09.302Z,15.28
2018-04-14T08:21:37.277Z,15.34
2018-04-14T08:24:05.516Z,15.44
2018-04-14T08:26:33.397Z,15.51
2018-04-14T08:29:01.096Z,15.46
2018-04-14T08:31:28.910Z,15.64
2018-04-14T08:33:59.682Z,15.83
2018-04-14T08:36:45.041Z,16.03
2018-04-14T08:39:13.138Z,16.16
2018-04-14T08:41:41.008Z,16.28
2018-04-14T08:44:09.483Z,16.42
2018-04-14T08:46:41.591Z,16.60
2018-04-14T08:49:15.940Z,16.71
2018-04-14T08:51:45.311Z,16.88
2018-04-14T08:54:13.351Z,16.93
2018-04-14T08:56:41.285Z,17.20
2018-04-14T08:59:09.924Z,17.42
2018-04-14T09:01:37.732Z,17.40
2018-04-14T09:04:07.741Z,17.36
2018-04-14T09:06:35.678Z,17.55
2018-04-14T09:09:08.498Z,17.80
2018-04-14T09:11:36.187Z,17.95
2018-04-14T09:14:03.752Z,18.00
2018-04-14T09:16:31.409Z,17.79
2018-04-14T09:18:59.108Z,18.01
2018-04-14T09:21:27.037Z,18.22
2018-04-14T09:23:56.193Z,18.44
2018-04-14T09:26:28.010Z,18.59
2018-04-14T09:28:55.846Z,18.68
2018-04-14T09:31:23.399Z,18.80
2018-04-14T09:33:51.207Z,18.81
2018-04-14T09:36:18.748Z,18.78
2018-04-14T09:38:49.176Z,18.73
2018-04-14T09:41:18.186Z,18.79
2018-04-14T09:43:46.032Z,18.95
2018-04-14T09:46:13.879Z,19.13
2018-04-14T09:48:42.992Z,19.19
2018-04-14T09:51:13.526Z,19.27
2018-04-14T09:53:43.511Z,19.45
2018-04-14T09:56:14.453Z,19.62
2018-04-14T09:58:42.349Z,19.49
2018-04-14T10:01:15.998Z,19.66
2018-04-14T10:03:55.785Z,19.81
2018-04-14T10:06:26.754Z,19.47
2018-04-14T10:08:54.782Z,19.72
2018-04-14T10:11:25.227Z,19.98
2018-04-14T10:13:54.484Z,20.18
2018-04-14T10:16:22.289Z,20.37
2018-04-14T10:18:50.615Z,20.51
2018-04-14T10:21:18.322Z,20.60
2018-04-14T10:23:46.301Z,20.62
2018-04-14T10:26:14.727Z,20.43
2018-04-14T10:28:42.960Z,20.34
2018-04-14T10:31:10.571Z,20.24
2018-04-14T10:33:38.117Z,20.13
2018-04-14T10:36:06.292Z,20.11
2018-04-14T10:38:43.450Z,20.17
2018-04-14T10:41:20.586Z,20.03
2018-04-14T10:43:49.137Z,19.99
2018-04-14T10:46:16.741Z,19.97
2018-04-14T10:48:45.448Z,20.31
2018-04-14T10:51:13.196Z,20.63
2018-04-14T10:53:42.315Z,20.94
2018-04-14T10:56:10.227Z,21.09
2018-04-14T10:58:38.906Z,21.05
2018-04-14T11:01:06.523Z,21.24
2018-04-14T11:03:34.073Z,21.20
2018-04-14T11:06:01.588Z,21.20
2018-04-14T11:08:29.116Z,21.16
2018-04-14T11:10:56.599Z,20.93
2018-04-14T11:13:24.109Z,21.45
2018-04-14T11:15:51.616Z,22.16
2018-04-14T11:18:19.122Z,22.40
2018-04-14T11:20:46.617Z,22.69
2018-04-14T11:23:14.311Z,22.84
2018-04-14T11:25:41.767Z,23.02
2018-04-14T11:28:09.289Z,22.89
2018-04-14T11:30:36.781Z,22.85
2018-04-14T11:33:04.256Z,22.86
2018-04-14T11:35:32.873Z,22.53
2018-04-14T11:38:00.363Z,23.02
2018-04-14T11:40:27.852Z,22.54
2018-04-14T11:42:55.320Z,23.09
2018-04-14T11:45:22.794Z,23.26
2018-04-14T11:47:50.309Z,23.16
2018-04-14T11:50:17.767Z,23.50
2018-04-14T11:52:45.392Z,23.77
2018-04-14T11:55:12.884Z,24.18
2018-04-14T11:57:40.359Z,24.27
2018-04-14T12:00:07.831Z,24.35
2018-04-14T12:02:35.312Z,24.67
2018-04-14T12:05:02.805Z,24.76
2018-04-14T12:07:30.316Z,24.47
2018-04-14T12:09:57.814Z,24.55
2018-04-14T12:12:25.300Z,24.28
2018-04-14T12:14:52.808Z,24.39
2018-04-14T12:17:20.308Z,24.35
2018-04-14T12:19:47.866Z,24.70
2018-04-14T12:22:15.496Z,25.67
2018-04-14T12:24:43.004Z,25.53
2018-04-14T12:27:10.500Z,26.15
2018-04-14T12:29:38.047Z,26.80
2018-04-14T12:32:05.532Z,28.48
2018-04-14T12:34:33.054Z,28.43
2018-04-14T12:37:00.590Z,29.63
2018-04-14T12:39:28.183Z,31.22
2018-04-14T12:41:55.694Z,33.29
2018-04-14T12:44:23.185Z,34.92
2018-04-14T12:46:50.681Z,34.64
2018-04-14T12:49:18.190Z,34.65
2018-04-14T12:51:46.293Z,31.96
2018-04-14T12:54:13.761Z,31.82
2018-04-14T12:56:41.320Z,32.91
2018-04-14T12:59:08.778Z,35.05
2018-04-14T13:01:36.281Z,34.99
2018-04-14T13:04:05.880Z,36.35
2018-04-14T13:06:33.356Z,36.04
2018-04-14T13:09:00.868Z,36.20
2018-04-14T13:11:28.364Z,36.25
2018-04-14T13:13:55.851Z,34.90
2018-04-14T13:16:23.333Z,35.63
2018-04-14T13:18:50.864Z,35.32
2018-04-14T13:21:18.337Z,34.77
2018-04-14T13:23:45.871Z,35.36
2018-04-14T13:26:13.387Z,35.26
2018-04-14T13:28:40.880Z,34.93
2018-04-14T13:31:08.395Z,35.62
2018-04-14T13:33:35.876Z,34.99
2018-04-14T13:36:03.408Z,34.48
2018-04-14T13:38:31.019Z,32.83
2018-04-14T13:40:58.507Z,32.35
2018-04-14T13:49:36.752Z,32.73
2018-04-14T13:52:04.287Z,33.11
2018-04-14T13:54:31.765Z,33.45
2018-04-14T13:56:59.276Z,33.28
2018-04-14T13:59:26.927Z,33.13
2018-04-14T14:01:54.424Z,33.17
2018-04-14T14:04:22.091Z,34.04
2018-04-14T14:06:49.566Z,34.96
2018-04-14T14:09:17.088Z,33.65
2018-04-14T14:11:44.598Z,33.38
2018-04-14T14:14:12.057Z,33.10
2018-04-14T14:16:39.529Z,32.74
2018-04-14T14:19:07.010Z,31.29
2018-04-14T14:21:34.497Z,34.01
2018-04-14T14:24:02.166Z,35.93
2018-04-14T14:26:29.638Z,36.30
2018-04-14T14:28:57.106Z,34.16
2018-04-14T14:31:24.551Z,32.85
2018-04-14T14:33:52.033Z,34.45
2018-04-14T14:36:19.533Z,36.05
2018-04-14T14:38:47.002Z,37.52
2018-04-14T14:41:14.487Z,38.16
2018-04-14T14:43:41.995Z,39.39
2018-04-14T14:46:09.474Z,40.69
2018-04-14T14:48:36.976Z,40.64
2018-04-14T14:51:04.437Z,40.06
2018-04-14T14:53:31.896Z,38.73
2018-04-14T14:55:59.485Z,37.75
2018-04-14T14:58:26.959Z,37.69
2018-04-14T15:00:54.559Z,38.50
2018-04-14T15:03:22.021Z,38.61
2018-04-14T15:05:49.500Z,38.99
2018-04-14T15:08:16.975Z,39.63
2018-04-14T15:10:44.446Z,40.16
2018-04-14T15:13:11.986Z,39.52
2018-04-14T15:15:39.449Z,38.94
2018-04-14T15:18:06.951Z,37.80
2018-04-14T15:20:34.442Z,36.60
2018-04-14T15:23:01.925Z,35.36
2018-04-14T15:25:29.399Z,34.94
2018-04-14T15:27:56.984Z,34.66
2018-04-14T15:30:24.472Z,35.32
2018-04-14T15:32:52.179Z,35.83
2018-04-14T15:35:19.643Z,36.16
2018-04-14T15:37:47.180Z,37.01
2018-04-14T15:40:14.727Z,37.93
2018-04-14T15:42:42.334Z,38.45
2018-04-14T15:45:09.809Z,38.99
2018-04-14T15:47:37.296Z,39.68
2018-04-14T15:50:04.778Z,39.72
2018-04-14T15:52:32.271Z,38.67
2018-04-14T15:54:59.752Z,39.28
2018-04-14T15:57:27.230Z,38.89
2018-04-14T15:59:54.950Z,39.11
2018-04-14T16:02:22.470Z,38.50
2018-04-14T16:04:49.928Z,37.81
2018-04-14T16:07:17.411Z,36.95
2018-04-14T16:09:44.892Z,36.40
2018-04-14T16:12:12.405Z,34.83
2018-04-14T16:14:39.894Z,34.04
2018-04-14T16:17:07.729Z,32.75
2018-04-14T16:19:35.224Z,31.88
2018-04-14T16:22:02.703Z,30.95
2018-04-14T16:24:30.169Z,29.85
2018-04-14T16:26:57.700Z,29.27
2018-04-14T16:29:25.267Z,28.58
2018-04-14T16:31:52.936Z,27.95
2018-04-14T16:34:20.400Z,27.34
2018-04-14T16:36:47.874Z,26.74
2018-04-14T16:39:15.394Z,26.39
2018-04-14T16:41:42.866Z,25.92
2018-04-14T16:44:10.544Z,25.53
2018-04-14T16:46:38.026Z,25.21
2018-04-14T16:49:05.538Z,24.58
2018-04-14T16:51:33.009Z,24.33
2018-04-14T16:54:00.502Z,24.03
2018-04-14T16:56:28.196Z,23.61
2018-04-14T16:58:55.709Z,23.18
2018-04-14T17:01:23.245Z,22.85
2018-04-14T17:03:50.719Z,22.53
2018-04-14T17:06:18.330Z,22.23
2018-04-14T17:08:45.796Z,22.03
2018-04-14T17:11:13.448Z,21.82
2018-04-14T17:13:40.913Z,21.63
2018-04-14T17:16:08.407Z,21.46
2018-04-14T17:18:35.923Z,21.35
2018-04-14T17:21:03.466Z,21.20
2018-04-14T17:23:30.950Z,21.06
2018-04-14T17:25:58.433Z,20.88
2018-04-14T17:28:25.906Z,20.87
2018-04-14T17:30:53.561Z,20.78
2018-04-14T17:33:21.013Z,20.56
2018-04-14T17:35:49.610Z,20.46
2018-04-14T17:38:17.085Z,20.37
2018-04-14T17:40:44.597Z,20.37
2018-04-14T17:43:12.084Z,20.33
2018-04-14T17:45:39.552Z,20.25
2018-04-14T17:48:07.025Z,20.09
2018-04-14T17:50:34.487Z,19.92
2018-04-14T17:53:01.945Z,19.70
2018-04-14T17:55:29.500Z,19.55
2018-04-14T17:57:56.931Z,19.35
2018-04-14T18:00:24.434Z,19.15
2018-04-14T18:02:51.904Z,18.97
2018-04-14T18:05:19.371Z,18.75
2018-04-14T18:07:46.882Z,18.48
2018-04-14T18:10:14.384Z,18.26
2018-04-14T18:12:41.852Z,18.02
2018-04-14T18:15:09.340Z,17.78
2018-04-14T18:17:36.912Z,17.55
2018-04-14T18:20:04.400Z,17.36
2018-04-14T18:22:31.915Z,17.20
2018-04-14T18:24:59.417Z,17.02
2018-04-14T18:27:26.881Z,16.87
2018-04-14T18:29:54.400Z,16.71
2018-04-14T18:32:21.903Z,16.59
2018-04-14T18:34:49.397Z,16.47
2018-04-14T18:37:16.885Z,16.28
2018-04-14T18:39:44.366Z,16.23
2018-04-14T18:42:11.861Z,16.09
2018-04-14T18:44:39.338Z,15.97
2018-04-14T18:47:06.780Z,15.88
2018-04-14T18:49:34.237Z,15.83
2018-04-14T18:52:01.819Z,15.74
2018-04-14T18:54:30.459Z,15.70
2018-04-14T18:56:58.029Z,15.65
2018-04-14T19:02:09.576Z,15.54
2018-04-14T19:04:37.067Z,15.46
2018-04-14T19:07:04.588Z,15.36
2018-04-14T19:09:32.221Z,15.33
2018-04-14T19:11:59.705Z,15.24
2018-04-14T19:14:27.246Z,15.19
2018-04-14T19:16:54.741Z,15.15
2018-04-14T19:19:22.604Z,15.11
2018-04-14T19:21:51.082Z,15.04
2018-04-14T19:24:18.572Z,14.99
2018-04-14T19:26:46.079Z,14.94
2018-04-14T19:29:13.760Z,14.88
2018-04-14T19:31:41.359Z,14.80
2018-04-14T19:34:08.847Z,14.78
2018-04-14T19:36:36.329Z,14.76
2018-04-14T19:39:04.043Z,14.71
2018-04-14T19:41:31.551Z,14.69
2018-04-14T19:43:59.038Z,14.66
2018-04-14T19:46:26.528Z,14.64
2018-04-14T19:48:54.116Z,14.64
2018-04-14T19:51:22.662Z,14.63
2018-04-14T19:54:00.504Z,14.61
2018-04-14T19:56:28.079Z,14.58
2018-04-14T19:58:55.599Z,14.57
2018-04-14T20:01:26.043Z,14.50
2018-04-14T20:03:59.004Z,14.50
2018-04-14T20:06:26.599Z,14.47
2018-04-14T20:08:54.157Z,14.47
2018-04-14T20:11:21.621Z,14.48
2018-04-14T20:13:49.245Z,14.54
2018-04-14T20:16:16.795Z,14.57
2018-04-14T20:18:44.852Z,14.57
2018-04-14T20:21:12.337Z,14.57
2018-04-14T20:23:39.874Z,14.57
2018-04-14T20:26:07.375Z,14.52
2018-04-14T20:28:34.858Z,14.47
2018-04-14T20:31:02.380Z,14.44
2018-04-14T20:33:29.848Z,14.38
2018-04-14T20:35:57.387Z,14.35
2018-04-14T20:38:24.911Z,14.31
2018-04-14T20:40:52.438Z,14.27
2018-04-14T20:43:19.943Z,14.18
2018-04-14T20:45:47.478Z,14.10
2018-04-14T20:48:14.943Z,14.01
2018-04-14T20:50:42.582Z,13.90
2018-04-14T20:53:10.052Z,13.83
2018-04-14T20:55:37.578Z,13.76
2018-04-14T20:58:05.098Z,13.67
2018-04-14T21:00:32.697Z,13.70
2018-04-14T21:03:00.372Z,13.89
2018-04-14T21:05:27.975Z,13.92
2018-04-14T21:07:55.571Z,13.98
2018-04-14T21:10:23.034Z,14.12
2018-04-14T21:12:50.522Z,14.29
2018-04-14T21:15:18.000Z,14.30
2018-04-14T21:17:45.495Z,14.45
2018-04-14T21:20:12.991Z,14.39
2018-04-14T21:22:40.748Z,14.48
2018-04-14T21:25:08.230Z,14.55
2018-04-14T21:27:36.669Z,14.40
2018-04-14T21:30:04.162Z,14.11
2018-04-14T21:32:31.622Z,13.97
2018-04-14T21:34:59.326Z,13.99
2018-04-14T21:37:26.807Z,14.55
2018-04-14T21:39:54.274Z,14.47
2018-04-14T21:42:21.762Z,14.83
2018-04-14T21:44:49.230Z,14.95
2018-04-14T21:47:16.728Z,14.81
2018-04-14T21:49:44.283Z,14.54
2018-04-14T21:52:11.762Z,14.55
2018-04-14T21:54:39.340Z,14.51
2018-04-14T21:57:06.822Z,14.32
2018-04-14T21:59:34.289Z,14.42
2018-04-14T22:02:01.763Z,15.01
2018-04-14T22:04:29.358Z,15.01
2018-04-14T22:06:56.885Z,14.81
2018-04-14T22:09:24.390Z,14.73
2018-04-14T22:11:51.849Z,14.64
2018-04-14T22:14:31.256Z,14.32
2018-04-14T22:16:58.824Z,14.21
2018-04-14T22:19:26.423Z,14.21
2018-04-14T22:21:53.908Z,14.32
2018-04-14T22:24:21.387Z,14.37
2018-04-14T22:26:48.898Z,14.06
2018-04-14T22:29:18.289Z,13.76
2018-04-14T22:31:48.995Z,13.50
2018-04-14T22:34:16.477Z,13.16
2018-04-14T22:36:43.930Z,13.00
2018-04-14T22:39:11.640Z,12.95
2018-04-14T22:41:39.244Z,12.84
2018-04-14T22:44:06.710Z,12.68
2018-04-14T22:46:34.256Z,12.60
2018-04-14T22:49:02.112Z,12.48
2018-04-14T22:51:29.585Z,12.40
2018-04-14T22:53:57.083Z,12.29
2018-04-14T22:56:24.557Z,12.21
2018-04-14T22:58:52.045Z,12.09
2018-04-14T23:01:19.523Z,12.07
2018-04-14T23:03:47.013Z,11.98
2018-04-14T23:06:14.567Z,11.87
2018-04-14T23:08:42.085Z,11.80
2018-04-14T23:11:09.543Z,11.79
2018-04-14T23:13:37.028Z,11.80
2018-04-14T23:16:04.596Z,11.80
2018-04-14T23:18:32.060Z,11.77
2018-04-14T23:20:59.544Z,11.79
2018-04-14T23:23:27.014Z,11.74
2018-04-14T23:25:54.561Z,11.71
2018-04-14T23:28:22.064Z,11.61
2018-04-14T23:30:49.680Z,11.53
2018-04-14T23:33:17.177Z,11.49
2018-04-14T23:35:44.660Z,11.46
2018-04-14T23:38:12.230Z,11.48
2018-04-14T23:40:39.723Z,11.47
2018-04-14T23:43:07.186Z,11.47
2018-04-14T23:45:34.653Z,11.44
2018-04-14T23:48:02.138Z,11.40
2018-04-14T23:50:29.614Z,11.37
2018-04-14T23:52:57.177Z,11.36
2018-04-14T23:55:24.634Z,11.40
2018-04-14T23:57:52.078Z,11.44
